ムンバイ の空港の天気 - METARとTAF

チャットラパティー・シヴァージー国際空港 ( VABB / BOM ) - インド ムンバイ
飛行場実況気象(Metar)
観測時間01/23 09:30 IST (01/23 04:00 UTC)
風向・風速北 3m/s
視程2200m
天気現象煙霧
少しの雲 雲底高度 610m
気温25℃
湿度74%
気圧1013hPa
METARVABB 230400Z 01005KT 2200 HZ FEW020 25/20 Q1013 BECMG 2500 HZ
過去の天気等 Google飛行場航空写真 Wunderground天気予報

過去48時間のMETAR

飛行場予報(TAF)
発表時間: 1/23 04:30 IST (1/22 23:00 UTC)
予報対象時間: 23日5時 IST ~ 24日11時 IST
風向・風速静穏
視程2,000m
天気現象煙霧 煙
なし
23日8時 IST ~ 23日10時 IST に徐々に
風向・風速東 2m/s
視程3,000m
天気現象
23日14時 IST ~ 23日16時 IST に徐々に
風向・風速西 5m/s
視程4,000m
天気現象
23日20時 IST ~ 23日22時 IST に徐々に
風向・風速北北西 3m/s
視程3,000m
天気現象
23日23時 IST ~ 24日1時 IST に徐々に
風向・風速東 2m/s
24日2時 IST ~ 24日4時 IST に徐々に
風向・風速静穏
視程2,000m
天気現象
24日8時 IST ~ 24日10時 IST に徐々に
風向・風速東南東 2m/s
視程3,000m
天気現象
TAF VABB 222300Z 2300/2406 00000KT 2000 HZ FU NSC
BECMG 2303/2305 08004KT 3000 FU
BECMG 2309/2311 27010KT 4000 FU
BECMG 2315/2317 33005KT 3000 FU
BECMG 2318/2320 08004KT
BECMG 2321/2323 00000KT 2000 FU
BECMG 2403/2405 12004KT 3000 FU